createdAt,value
2022-10-11T04:18:00.733Z,102329.06
2022-10-11T04:45:34.831Z,102349.72
2022-10-11T04:48:01.777Z,102351.44
2022-10-11T04:50:28.480Z,102350.56
2022-10-11T04:52:55.085Z,102344.56
2022-10-11T04:55:21.614Z,102355.75
2022-10-11T04:57:48.321Z,102356.63
2022-10-11T05:00:15.319Z,102357.47
2022-10-11T05:02:41.802Z,102354.00
2022-10-11T05:05:08.892Z,102354.00
2022-10-11T05:07:35.871Z,102351.44
2022-10-11T05:10:02.560Z,102351.44
2022-10-11T05:12:29.894Z,102358.34
2022-10-11T05:14:57.814Z,102356.59
2022-10-11T05:17:24.300Z,102368.63
2022-10-11T05:19:50.881Z,102355.75
2022-10-11T05:22:17.349Z,102363.47
2022-10-11T05:24:43.906Z,102368.66
2022-10-11T05:27:10.482Z,102360.03
2022-10-11T05:29:37.181Z,102363.47
2022-10-11T05:32:03.831Z,102366.94
2022-10-11T05:34:30.299Z,102372.09
2022-10-11T05:36:57.566Z,102372.09
2022-10-11T05:39:24.421Z,102373.81
2022-10-11T05:41:52.275Z,102384.13
2022-10-11T05:44:18.776Z,102377.25
2022-10-11T05:46:45.769Z,102377.25
2022-10-11T05:49:12.332Z,102386.75
2022-10-11T05:51:38.928Z,102381.56
2022-10-11T05:54:05.606Z,102388.44
2022-10-11T05:56:32.178Z,102396.19
2022-10-11T05:59:02.200Z,102403.94
2022-10-11T06:01:29.205Z,102404.78
2022-10-11T06:03:56.034Z,102403.94
2022-10-11T06:06:23.376Z,102403.06
2022-10-11T06:08:50.515Z,102411.66
2022-10-11T06:11:23.674Z,102415.13
2022-10-11T06:13:50.389Z,102418.56
2022-10-11T06:16:16.862Z,102417.69
2022-10-11T06:18:43.489Z,102415.97
2022-10-11T06:21:10.224Z,102409.97
2022-10-11T06:23:36.781Z,102421.13
2022-10-11T06:26:09.599Z,102420.28
2022-10-11T06:28:37.191Z,102428.03
2022-10-11T06:31:05.816Z,102427.16
2022-10-11T06:33:33.646Z,102427.16
2022-10-11T06:36:09.882Z,102429.75
2022-10-11T06:38:39.807Z,102430.56
2022-10-11T06:41:16.165Z,102434.03
2022-10-11T06:43:42.775Z,102432.28
2022-10-11T06:46:09.357Z,102440.88
2022-10-11T06:48:40.443Z,102440.03
2022-10-11T06:51:06.935Z,102453.81
2022-10-11T06:53:33.568Z,102449.53
2022-10-11T06:56:09.203Z,102441.75
2022-10-11T06:58:36.823Z,102443.47
2022-10-11T07:01:06.545Z,102453.75
2022-10-11T07:03:33.422Z,102452.88
2022-10-11T07:06:05.465Z,102456.31
2022-10-11T07:08:32.917Z,102459.72
2022-10-11T07:11:04.313Z,102463.16
2022-10-11T07:13:31.227Z,102464.84
2022-10-11T07:16:01.231Z,102468.25
2022-10-11T07:18:28.718Z,102469.91
2022-10-11T07:20:55.295Z,102469.00
2022-10-11T07:23:22.893Z,102474.97
2022-10-11T07:25:50.005Z,102484.41
2022-10-11T07:28:17.118Z,102487.81
2022-10-11T07:30:44.157Z,102486.03
2022-10-11T07:33:10.722Z,102491.22
2022-10-11T07:35:37.652Z,102496.28
2022-10-11T07:38:06.297Z,102491.91
2022-10-11T07:40:40.397Z,102494.41
2022-10-11T07:43:06.893Z,102485.75
2022-10-11T07:45:33.440Z,102490.88
2022-10-11T07:48:00.060Z,102491.72
2022-10-11T07:50:26.712Z,102489.94
2022-10-11T07:52:53.318Z,102484.66
2022-10-11T07:55:19.843Z,102486.38
2022-10-11T07:57:46.384Z,102492.38
2022-10-11T08:00:13.728Z,102487.97
2022-10-11T08:02:40.292Z,102487.94
2022-10-11T08:05:07.137Z,102492.19
2022-10-11T08:07:33.714Z,102500.75
2022-10-11T08:10:00.239Z,102491.13
2022-10-11T08:12:26.751Z,102481.53
2022-10-11T08:14:55.182Z,102487.53
2022-10-11T08:17:21.675Z,102493.47
2022-10-11T08:19:48.564Z,102486.50
2022-10-11T08:22:15.055Z,102490.72
2022-10-11T08:24:41.575Z,102484.59
2022-10-11T08:27:08.271Z,102485.38
2022-10-11T08:29:34.756Z,102488.72
2022-10-11T08:32:01.238Z,102484.28
2022-10-11T08:34:28.068Z,102490.19
2022-10-11T08:36:54.609Z,102490.09
2022-10-11T08:39:21.093Z,102488.28
2022-10-11T08:41:54.138Z,102499.31
2022-10-11T08:45:09.026Z,102505.28
2022-10-11T08:47:37.699Z,102497.31
2022-10-11T08:50:07.709Z,102496.34
2022-10-11T08:52:45.108Z,102498.72
2022-10-11T08:55:49.199Z,102496.78
2022-10-11T08:58:20.353Z,102505.41
2022-10-11T09:00:50.524Z,102502.59
2022-10-11T09:03:38.127Z,102503.28
2022-10-11T09:06:34.876Z,102503.97
2022-10-11T09:09:17.910Z,102506.38
2022-10-11T09:12:03.717Z,102504.41
2022-10-11T09:15:02.627Z,102508.56
2022-10-11T09:17:45.159Z,102508.19
2022-10-11T09:20:49.177Z,102504.06
2022-10-11T09:23:33.946Z,102504.69
2022-10-11T09:26:50.241Z,102499.25
2022-10-11T09:29:32.130Z,102499.97
2022-10-11T09:31:59.535Z,102501.63
2022-10-11T09:34:32.350Z,102498.03
2022-10-11T09:37:32.881Z,102501.63
2022-10-11T09:40:17.559Z,102505.84
2022-10-11T09:42:44.054Z,102499.66
2022-10-11T09:45:28.868Z,102505.63
2022-10-11T09:47:57.716Z,102500.28
2022-10-11T09:50:30.692Z,102494.94
2022-10-11T09:53:00.140Z,102507.00
2022-10-11T09:55:34.809Z,102502.94
2022-10-11T09:58:02.302Z,102503.66
2022-10-11T10:00:33.660Z,102511.50
2022-10-11T10:03:02.942Z,102501.88
2022-10-11T10:05:37.515Z,102498.34
2022-10-11T10:08:23.467Z,102503.53
2022-10-11T10:11:05.747Z,102504.25
2022-10-11T10:14:04.534Z,102499.78
2022-10-11T10:16:33.728Z,102515.41
2022-10-11T10:19:07.183Z,102510.25
2022-10-11T10:21:44.077Z,102511.94
2022-10-11T10:24:40.182Z,102513.44
2022-10-11T10:27:22.766Z,102511.50
2022-10-11T10:30:07.842Z,102509.56
2022-10-11T10:32:48.661Z,102509.41
2022-10-11T10:35:27.287Z,102513.63
2022-10-11T10:38:06.614Z,102502.16
2022-10-11T10:40:41.300Z,102507.38
2022-10-11T10:43:15.680Z,102497.56
2022-10-11T10:46:16.089Z,102498.91
2022-10-11T10:49:23.250Z,102498.75
2022-10-11T10:51:54.773Z,102498.31
2022-10-11T10:57:02.161Z,102486.94
2022-10-11T10:59:40.539Z,102486.75
2022-10-11T11:02:40.375Z,102484.75
2022-10-11T11:05:36.459Z,102488.69
2022-10-11T11:08:32.217Z,102490.91
2022-10-11T11:11:36.428Z,102481.81
2022-10-11T11:14:32.163Z,102483.69
2022-10-11T11:17:25.280Z,102479.66
2022-10-11T11:20:06.956Z,102486.78
2022-10-11T11:22:46.118Z,102483.47
2022-10-11T11:25:27.795Z,102487.22
2022-10-11T11:28:13.448Z,102477.69
2022-10-11T11:30:55.714Z,102478.69
2022-10-11T11:33:49.410Z,102472.78
2022-10-11T11:36:26.236Z,102478.03
2022-10-11T11:38:59.928Z,102476.47
2022-10-11T11:41:31.428Z,102473.50
2022-10-11T11:44:15.854Z,102468.28
2022-10-11T11:46:53.533Z,102462.97
2022-10-11T11:49:31.155Z,102467.94
2022-10-11T11:51:59.217Z,102464.84
2022-10-11T11:54:35.009Z,102459.94
2022-10-11T11:57:20.204Z,102452.56
2022-10-11T11:59:59.768Z,102457.38
2022-10-11T12:02:45.063Z,102450.88
2022-10-11T12:05:15.462Z,102447.78
2022-10-11T12:07:53.097Z,102449.19
2022-10-11T12:10:37.191Z,102438.38
2022-10-11T12:13:13.102Z,102442.75
2022-10-11T12:15:40.019Z,102433.69
2022-10-11T12:18:16.503Z,102437.25
2022-10-11T12:20:46.699Z,102436.41
2022-10-11T12:23:28.458Z,102430.41
2022-10-11T12:26:16.917Z,102433.03
2022-10-11T12:28:43.640Z,102432.81
2022-10-11T12:31:18.319Z,102429.31
2022-10-11T12:33:52.302Z,102427.59
2022-10-11T12:36:44.863Z,102424.00
2022-10-11T12:39:20.581Z,102416.16
2022-10-11T12:42:06.021Z,102420.97
2022-10-11T12:44:32.696Z,102414.16
2022-10-11T12:47:16.245Z,102416.22
2022-10-11T12:50:06.841Z,102408.13
2022-10-11T12:52:43.696Z,102412.94
2022-10-11T12:55:36.583Z,102412.44
2022-10-11T12:58:24.823Z,102404.72
2022-10-11T13:00:51.862Z,102414.22
2022-10-11T13:03:39.432Z,102403.06
2022-10-11T13:06:35.399Z,102406.91
2022-10-11T13:09:10.821Z,102396.94
2022-10-11T13:11:44.082Z,102396.53
2022-10-11T13:14:23.363Z,102391.63
2022-10-11T13:16:56.068Z,102397.78
2022-10-11T13:19:23.482Z,102391.09
2022-10-11T13:21:54.635Z,102391.13
2022-10-11T13:24:23.240Z,102388.25
2022-10-11T13:26:52.174Z,102384.16
2022-10-11T13:29:24.397Z,102391.16
2022-10-11T13:31:51.044Z,102386.56
2022-10-11T13:34:23.058Z,102384.41
2022-10-11T13:36:55.877Z,102376.38
2022-10-11T13:39:31.822Z,102377.06
2022-10-11T13:42:00.404Z,102380.25
2022-10-11T13:44:27.393Z,102376.81
2022-10-11T13:46:54.490Z,102377.78
2022-10-11T13:49:37.588Z,102381.72
2022-10-11T13:52:26.208Z,102381.16
2022-10-11T13:55:03.384Z,102366.94
2022-10-11T13:57:35.945Z,102365.31
2022-10-11T14:00:17.516Z,102363.81
2022-10-11T14:02:59.860Z,102362.91
2022-10-11T14:05:43.200Z,102362.59
2022-10-11T14:08:21.939Z,102357.38
2022-10-11T14:10:55.663Z,102363.69
2022-10-11T14:13:35.476Z,102355.84
2022-10-11T14:16:09.704Z,102363.47
2022-10-11T14:18:44.442Z,102357.47
2022-10-11T14:21:20.350Z,102367.16
2022-10-11T14:23:50.947Z,102361.59
2022-10-11T14:26:19.177Z,102371.25
2022-10-11T14:28:48.984Z,102366.19
2022-10-11T14:31:15.462Z,102360.41
2022-10-11T14:33:41.957Z,102366.53
2022-10-11T14:36:09.398Z,102366.50
2022-10-11T14:38:35.995Z,102361.50
2022-10-11T14:41:02.482Z,102359.88
2022-10-11T14:43:28.962Z,102355.38
2022-10-11T14:45:55.425Z,102353.91
2022-10-11T14:48:42.995Z,102351.97
2022-10-11T14:51:13.039Z,102364.31
2022-10-11T14:53:46.010Z,102353.25
2022-10-11T14:56:20.403Z,102355.34
2022-10-11T14:58:48.025Z,102353.09
2022-10-11T15:01:16.446Z,102353.88
2022-10-11T15:03:43.325Z,102346.72
2022-10-11T15:06:33.873Z,102352.13
2022-10-11T15:09:00.395Z,102345.19
2022-10-11T15:11:26.857Z,102344.41
2022-10-11T15:13:53.867Z,102343.56
2022-10-11T15:16:21.315Z,102337.31
2022-10-11T15:18:52.044Z,102331.34
2022-10-11T15:21:20.693Z,102329.81
2022-10-11T15:23:48.178Z,102331.09
2022-10-11T15:26:24.400Z,102335.31
2022-10-11T15:28:52.402Z,102338.94
2022-10-11T15:31:19.657Z,102325.88
2022-10-11T15:33:46.445Z,102328.09
2022-10-11T15:36:17.543Z,102327.34
2022-10-11T15:38:44.831Z,102332.31
2022-10-11T15:41:13.803Z,102334.94
2022-10-11T15:43:40.810Z,102335.13
2022-10-11T15:46:07.817Z,102332.69
2022-10-11T15:48:35.345Z,102336.31
2022-10-11T15:51:01.876Z,102338.16
2022-10-11T15:53:31.211Z,102331.94
2022-10-11T15:56:01.344Z,102332.88
2022-10-11T15:58:32.210Z,102330.00
2022-10-11T16:01:05.651Z,102329.34
2022-10-11T16:03:33.317Z,102326.75
2022-10-11T16:06:04.856Z,102326.00
2022-10-11T16:08:33.243Z,102330.53
2022-10-11T16:10:59.874Z,102332.25
2022-10-11T16:13:26.783Z,102332.44
2022-10-11T16:15:53.385Z,102331.72
2022-10-11T16:18:22.556Z,102333.63
2022-10-11T16:20:51.932Z,102334.44
2022-10-11T16:23:20.612Z,102329.44
2022-10-11T16:25:56.506Z,102329.50
2022-10-11T16:28:23.045Z,102319.28
2022-10-11T16:30:49.562Z,102326.09
2022-10-11T16:33:18.426Z,102322.69
2022-10-11T16:35:44.926Z,102323.81
2022-10-11T16:38:11.487Z,102325.81
2022-10-11T16:40:40.422Z,102327.84
2022-10-11T16:43:08.099Z,102326.34
2022-10-11T16:45:35.365Z,102329.16
2022-10-11T16:48:02.600Z,102321.56
2022-10-11T16:50:29.218Z,102331.44
2022-10-11T16:52:56.113Z,102339.59
2022-10-11T16:55:22.988Z,102339.81
2022-10-11T16:57:49.474Z,102334.03
2022-10-11T17:00:16.239Z,102335.97
2022-10-11T17:02:43.079Z,102335.31
2022-10-11T17:05:09.606Z,102335.41
2022-10-11T17:07:36.130Z,102343.41
2022-10-11T17:10:03.306Z,102339.25
2022-10-11T17:12:29.996Z,102338.44
2022-10-11T17:14:56.645Z,102340.22
2022-10-11T17:17:23.342Z,102343.84
2022-10-11T17:19:50.146Z,102343.91
2022-10-11T17:22:19.032Z,102340.56
2022-10-11T17:24:45.806Z,102338.94
2022-10-11T17:27:12.718Z,102332.13
2022-10-11T17:29:39.826Z,102339.13
2022-10-11T17:32:06.544Z,102331.41
2022-10-11T17:34:33.692Z,102340.19
2022-10-11T17:37:00.194Z,102332.50
2022-10-11T17:39:26.688Z,102342.16
2022-10-11T17:41:53.374Z,102334.44
2022-10-11T17:44:21.766Z,102335.41
2022-10-11T17:46:49.363Z,102341.59
2022-10-11T17:49:16.582Z,102345.13
2022-10-11T17:51:44.234Z,102341.75
2022-10-11T17:54:12.928Z,102346.16
2022-10-11T17:56:41.087Z,102338.53
2022-10-11T17:59:09.627Z,102342.91
2022-10-11T18:01:37.340Z,102342.91
2022-10-11T18:04:05.277Z,102338.66
2022-10-11T18:06:37.484Z,102336.09
2022-10-11T18:09:04.481Z,102332.69
2022-10-11T18:11:31.674Z,102339.66
2022-10-11T18:13:58.372Z,102345.81
2022-10-11T18:16:27.144Z,102342.47
2022-10-11T18:18:54.890Z,102342.56
2022-10-11T18:21:21.663Z,102347.84
2022-10-11T18:23:48.176Z,102337.53
2022-10-11T18:26:17.553Z,102346.22
2022-10-11T18:28:45.400Z,102344.53
2022-10-11T18:31:18.589Z,102348.09
2022-10-11T18:33:46.186Z,102346.38
2022-10-11T18:36:15.037Z,102344.66
2022-10-11T18:38:47.183Z,102347.31
2022-10-11T18:41:16.914Z,102337.78
2022-10-11T18:43:48.657Z,102336.97
2022-10-11T18:46:15.207Z,102337.00
2022-10-11T18:48:43.416Z,102330.97
2022-10-11T18:51:15.871Z,102337.06
2022-10-11T18:53:42.517Z,102327.59
2022-10-11T18:56:10.494Z,102338.91
2022-10-11T18:58:39.163Z,102336.50
2022-10-11T19:01:18.143Z,102327.84
2022-10-11T19:03:46.285Z,102335.69
2022-10-11T19:06:18.921Z,102333.09
2022-10-11T19:08:47.397Z,102332.22
2022-10-11T19:11:21.706Z,102329.69
2022-10-11T19:14:09.896Z,102334.91
2022-10-11T19:16:40.490Z,102327.22
2022-10-11T19:19:08.050Z,102336.75
2022-10-11T19:21:34.567Z,102338.47
2022-10-11T19:24:01.356Z,102330.72
2022-10-11T19:26:36.507Z,102326.44
2022-10-11T19:29:11.641Z,102328.19
2022-10-11T19:31:43.116Z,102334.25
2022-10-11T19:34:10.346Z,102330.03
2022-10-11T19:36:37.129Z,102327.44
2022-10-11T19:39:05.021Z,102325.75
2022-10-11T19:41:32.253Z,102324.06
2022-10-11T19:44:00.040Z,102326.75
2022-10-11T19:46:49.851Z,102326.00
2022-10-11T19:49:17.543Z,102328.66
2022-10-11T19:51:44.210Z,102330.44
2022-10-11T19:54:13.626Z,102325.28
2022-10-11T19:56:40.752Z,102324.41
2022-10-11T19:59:07.368Z,102330.47
2022-10-11T20:01:35.391Z,102327.03
2022-10-11T20:04:04.240Z,102337.41
2022-10-11T20:06:37.937Z,102333.97
2022-10-11T20:09:27.919Z,102328.78
2022-10-11T20:11:52.002Z,102336.59
2022-10-11T20:14:18.753Z,102333.19
2022-10-11T20:16:45.227Z,102328.03
2022-10-11T20:19:11.721Z,102323.75
2022-10-11T20:21:38.611Z,102329.03
2022-10-11T20:24:05.401Z,102321.25
2022-10-11T20:26:32.070Z,102324.75
2022-10-11T20:28:58.699Z,102323.06
2022-10-11T20:31:29.694Z,102323.94
2022-10-11T20:33:58.578Z,102326.53
2022-10-11T20:36:28.043Z,102330.06
2022-10-11T20:38:54.584Z,102321.44
2022-10-11T20:41:24.260Z,102325.03
2022-10-11T20:43:54.155Z,102323.34
2022-10-11T20:46:26.911Z,102322.47
2022-10-11T20:49:01.880Z,102326.78
2022-10-11T20:51:30.305Z,102328.53
2022-10-11T20:53:56.933Z,102326.84
2022-10-11T20:56:24.051Z,102326.00
2022-10-11T20:58:52.706Z,102321.66
2022-10-11T21:01:21.938Z,102325.13
2022-10-11T21:03:48.508Z,102326.88
2022-10-11T21:06:14.978Z,102321.66
2022-10-11T21:08:41.744Z,102321.69
2022-10-11T21:11:09.421Z,102313.91
2022-10-11T21:13:36.779Z,102313.91
2022-10-11T21:16:10.826Z,102312.16
2022-10-11T21:18:37.603Z,102319.91
2022-10-11T21:21:14.513Z,102310.50
2022-10-11T21:23:41.718Z,102309.69
2022-10-11T21:26:11.356Z,102300.22
2022-10-11T21:28:38.916Z,102308.88
2022-10-11T21:31:10.701Z,102310.69
2022-10-11T21:33:37.903Z,102311.56
2022-10-11T21:36:05.956Z,102305.59
2022-10-11T21:38:33.312Z,102310.84
2022-10-11T21:41:03.314Z,102313.50
2022-10-11T21:43:29.936Z,102312.75
2022-10-11T21:45:56.459Z,102315.34
2022-10-11T21:48:22.976Z,102314.53
2022-10-11T21:50:53.857Z,102318.06
2022-10-11T21:53:20.698Z,102312.91
2022-10-11T21:55:47.511Z,102318.09
2022-10-11T21:58:14.159Z,102319.00
2022-10-11T22:00:40.661Z,102326.78
2022-10-11T22:03:07.682Z,102323.31
2022-10-11T22:05:34.202Z,102328.47
2022-10-11T22:08:00.681Z,102321.56
2022-10-11T22:10:27.168Z,102323.28
2022-10-11T22:12:53.644Z,102325.84
2022-10-11T22:15:20.177Z,102319.81
2022-10-11T22:17:47.100Z,102321.56
2022-10-11T22:20:13.646Z,102316.38
2022-10-11T22:22:40.151Z,102316.41
2022-10-11T22:25:07.077Z,102312.09
2022-10-11T22:27:33.551Z,102312.91
2022-10-11T22:30:00.414Z,102310.31
2022-10-11T22:32:27.244Z,102309.44
2022-10-11T22:34:53.881Z,102311.19
2022-10-11T22:37:20.354Z,102301.69
2022-10-11T22:39:46.794Z,102300.91
2022-10-11T22:42:13.478Z,102301.81
2022-10-11T22:44:39.985Z,102298.41
2022-10-11T22:47:06.474Z,102300.13
2022-10-11T22:49:32.941Z,102302.72
2022-10-11T22:51:59.479Z,102300.16
2022-10-11T22:54:26.012Z,102300.16
2022-10-11T22:56:52.550Z,102302.72
2022-10-11T22:59:19.033Z,102301.00
2022-10-11T23:01:45.563Z,102300.94
2022-10-11T23:04:12.355Z,102294.91
2022-10-11T23:06:38.828Z,102296.63
2022-10-11T23:09:05.396Z,102294.91
2022-10-11T23:11:31.915Z,102304.41
2022-10-11T23:13:58.389Z,102292.38
2022-10-11T23:16:24.980Z,102289.78
2022-10-11T23:18:53.313Z,102293.31
2022-10-11T23:21:20.150Z,102297.63
2022-10-11T23:23:46.692Z,102301.94
2022-10-11T23:26:16.134Z,102302.84
2022-10-11T23:28:43.821Z,102302.03
2022-10-11T23:31:13.115Z,102298.59
2022-10-11T23:33:39.980Z,102292.56
2022-10-11T23:36:13.237Z,102295.19
2022-10-11T23:38:39.708Z,102287.44
2022-10-11T23:41:06.206Z,102291.72
2022-10-11T23:43:32.950Z,102285.69
2022-10-11T23:45:59.569Z,102289.13
2022-10-11T23:48:26.107Z,102289.09
2022-10-11T23:50:52.601Z,102290.81
2022-10-11T23:53:19.163Z,102300.22
2022-10-11T23:55:45.760Z,102296.78
2022-10-11T23:58:12.258Z,102297.63
